This is the latest recevied weather packets stored in our database for station/object WP3OF-5. If no packets are shown the sender has not sent any weather packets the latest 10 day(s).
| Time | Temp. | Humidity | Pressure | Rain* | Wind** | Luminosity | Snow |
|---|---|---|---|---|---|---|---|
| 1777493664 | 26.11° C | 89% | 1012.8 hPa | 0 mm | - | - | - |
| 1777493361 | 26.11° C | 90% | 1013.1 hPa | 0 mm | - | - | - |
| 1777493057 | 26.11° C | 90% | 1013 hPa | 0 mm | - | - | - |
| 1777492754 | 26.11° C | 90% | 1013.3 hPa | 0 mm | - | - | - |
| 1777492449 | 25.56° C | 91% | 1013.2 hPa | 0 mm | - | - | - |
| 1777492146 | 25.56° C | 91% | 1013.4 hPa | 0 mm | - | - | - |
| 1777491843 | 25.56° C | 93% | 1013.3 hPa | 0 mm | - | - | - |
| 1777491539 | 25° C | 93% | 1013.2 hPa | 0 mm | - | - | - |
| 1777491237 | 25° C | 93% | 1013.3 hPa | 0 mm | - | - | - |
| 1777490933 | 25° C | 92% | 1013.4 hPa | 0 mm | - | - | - |
| 1777490629 | 24.44° C | 92% | 1013.3 hPa | 0 mm | - | - | - |
| 1777490325 | 24.44° C | 91% | 1013.6 hPa | 0 mm | - | - | - |
| 1777490023 | 24.44° C | 91% | 1013.5 hPa | 0 mm | - | - | - |
| 1777489720 | 24.44° C | 91% | 1013.4 hPa | 0 mm | - | - | - |
| 1777489417 | 23.89° C | 92% | 1013.6 hPa | 0 mm | - | - | - |
| 1777489114 | 23.89° C | 93% | 1013.5 hPa | 1.27 mm | - | - | - |
| 1777488811 | 23.89° C | 93% | 1013.6 hPa | 4.32 mm | - | - | - |
| 1777488509 | 23.89° C | 94% | 1013.6 hPa | 9.65 mm | - | - | - |
| 1777488206 | 23.89° C | 94% | 1013.8 hPa | 27.69 mm | - | - | - |
| 1777487904 | 23.33° C | 93% | 1013.9 hPa | 41.4 mm | - | - | - |
| 1777487602 | 23.33° C | 92% | 1014 hPa | 30.73 mm | - | - | - |
| 1777487299 | 23.89° C | 91% | 1013.8 hPa | 13.72 mm | - | - | - |
| 1777486996 | 24.44° C | 89% | 1013.9 hPa | 15.49 mm | - | - | - |
| 1777486692 | 25.56° C | 86% | 1013.8 hPa | 23.88 mm | - | - | - |
| 1777486390 | 26.11° C | 82% | 1013.8 hPa | 13.72 mm | - | - | - |
* Rain latest hour (hover to see other rain measurements)
** Current wind speed in m/s (hover to see current wind gust speed)